Terminal Aerodrome Forecast
Issued by NWS Sioux Falls, SD

Home | Current Version | Previous Version | Text Only | Print | Product List | Glossary On
Versions: 1 2 3 4 5 6 7 8 9 10 11 12 13 14 15 16 17 18 19 20 21 22 23 24 25 26 27 28
000
FTUS43 KFSD 050531
TAFSUX
TAF
KSUX 050531Z 0506/0606 VRB03KT P6SM SKC
     FM051300 11005KT P6SM SKC
     FM051600 17009KT P6SM SKC
     FM052000 17012KT P6SM SCT200
     FM060100 15008KT P6SM SCT100=

USA.gov is the U.S. government's official web portal to all federal, state and local government web resources and services.